Terminal Aerodrome Forecast
Issued by NWS

Home | Current Version | Previous Version | Text Only | Print | Product List | Glossary On
Versions: 1 2 3 4 5 6 7 8 9 10 11 12
000
FTUS45 KREV 302349
TAFMMH
TAF
KMMH 302349Z 3100/3124 33020G30KT P6SM VCSH SCT040 BKN060
     FM310200 31020G30KT P6SM BKN050
     FM310700 29018G30KT P6SM VCSH OVC035
     FM311800 29015G25KT P6SM SCT050=

USA.gov is the U.S. government's official web portal to all federal, state and local government web resources and services.